sensor_id;sensor_type;location;lat;lon;timestamp;P1;durP1;ratioP1;P2;durP2;ratioP2
60582;SDS011;46415;47.536;19.066;2022-08-03T00:01:34;3.28;;;2.60;;
60582;SDS011;46415;47.536;19.066;2022-08-03T00:04:38;2.60;;;2.40;;
60582;SDS011;46415;47.536;19.066;2022-08-03T00:07:41;3.15;;;2.40;;
60582;SDS011;46415;47.536;19.066;2022-08-03T00:10:44;2.90;;;2.70;;
60582;SDS011;46415;47.536;19.066;2022-08-03T00:13:46;2.95;;;2.75;;
60582;SDS011;46415;47.536;19.066;2022-08-03T00:16:49;2.58;;;2.28;;
60582;SDS011;46415;47.536;19.066;2022-08-03T00:19:51;2.80;;;2.60;;
60582;SDS011;46415;47.536;19.066;2022-08-03T00:22:54;2.70;;;2.35;;
60582;SDS011;46415;47.536;19.066;2022-08-03T00:25:57;2.85;;;2.65;;
60582;SDS011;46415;47.536;19.066;2022-08-03T00:29:00;2.60;;;2.40;;
60582;SDS011;46415;47.536;19.066;2022-08-03T00:32:02;2.97;;;2.62;;
60582;SDS011;46415;47.536;19.066;2022-08-03T00:35:05;2.70;;;2.50;;
60582;SDS011;46415;47.536;19.066;2022-08-03T00:38:12;2.70;;;2.50;;
60582;SDS011;46415;47.536;19.066;2022-08-03T00:41:15;2.80;;;2.60;;
60582;SDS011;46415;47.536;19.066;2022-08-03T00:44:18;2.87;;;2.70;;
60582;SDS011;46415;47.536;19.066;2022-08-03T00:47:21;3.00;;;2.80;;
60582;SDS011;46415;47.536;19.066;2022-08-03T00:50:24;3.28;;;3.00;;
60582;SDS011;46415;47.536;19.066;2022-08-03T00:53:29;2.90;;;2.70;;
60582;SDS011;46415;47.536;19.066;2022-08-03T00:56:32;3.05;;;2.85;;
60582;SDS011;46415;47.536;19.066;2022-08-03T00:59:35;3.53;;;2.80;;
60582;SDS011;46415;47.536;19.066;2022-08-03T01:02:39;3.17;;;2.90;;
60582;SDS011;46415;47.536;19.066;2022-08-03T01:12:13;2.78;;;2.58;;
60582;SDS011;46415;47.536;19.066;2022-08-03T01:21:52;3.55;;;3.30;;
60582;SDS011;46415;47.536;19.066;2022-08-03T01:32:01;3.72;;;3.47;;
60582;SDS011;46415;47.536;19.066;2022-08-03T01:38:45;3.47;;;3.17;;
60582;SDS011;46415;47.536;19.066;2022-08-03T01:41:54;3.78;;;3.40;;
60582;SDS011;46415;47.536;19.066;2022-08-03T01:45:00;3.50;;;3.17;;
60582;SDS011;46415;47.536;19.066;2022-08-03T01:48:06;3.87;;;3.12;;
60582;SDS011;46415;47.536;19.066;2022-08-03T01:51:11;3.10;;;2.90;;
60582;SDS011;46415;47.536;19.066;2022-08-03T01:54:16;3.30;;;3.10;;
60582;SDS011;46415;47.536;19.066;2022-08-03T01:57:22;3.60;;;3.30;;
60582;SDS011;46415;47.536;19.066;2022-08-03T02:00:26;3.35;;;3.05;;
60582;SDS011;46415;47.536;19.066;2022-08-03T02:03:32;3.12;;;2.92;;
60582;SDS011;46415;47.536;19.066;2022-08-03T02:06:38;3.40;;;3.10;;
60582;SDS011;46415;47.536;19.066;2022-08-03T02:10:03;3.58;;;3.17;;
60582;SDS011;46415;47.536;19.066;2022-08-03T02:13:08;3.53;;;3.15;;
60582;SDS011;46415;47.536;19.066;2022-08-03T02:16:12;3.33;;;3.03;;
60582;SDS011;46415;47.536;19.066;2022-08-03T02:19:16;3.45;;;3.17;;
60582;SDS011;46415;47.536;19.066;2022-08-03T02:22:21;5.53;;;2.92;;
60582;SDS011;46415;47.536;19.066;2022-08-03T02:25:25;3.65;;;3.35;;
60582;SDS011;46415;47.536;19.066;2022-08-03T02:28:36;3.65;;;3.35;;
60582;SDS011;46415;47.536;19.066;2022-08-03T02:31:42;4.80;;;3.70;;
60582;SDS011;46415;47.536;19.066;2022-08-03T02:34:49;3.83;;;3.53;;
60582;SDS011;46415;47.536;19.066;2022-08-03T02:37:58;3.85;;;3.55;;
60582;SDS011;46415;47.536;19.066;2022-08-03T02:41:05;3.83;;;3.53;;
60582;SDS011;46415;47.536;19.066;2022-08-03T02:44:11;3.72;;;3.42;;
60582;SDS011;46415;47.536;19.066;2022-08-03T02:47:16;3.75;;;3.47;;
60582;SDS011;46415;47.536;19.066;2022-08-03T02:50:23;3.95;;;3.65;;
60582;SDS011;46415;47.536;19.066;2022-08-03T02:53:28;4.40;;;4.00;;
60582;SDS011;46415;47.536;19.066;2022-08-03T02:56:33;4.45;;;4.07;;
60582;SDS011;46415;47.536;19.066;2022-08-03T02:59:37;4.57;;;4.18;;
60582;SDS011;46415;47.536;19.066;2022-08-03T03:02:42;4.45;;;3.95;;
60582;SDS011;46415;47.536;19.066;2022-08-03T03:05:46;4.10;;;3.80;;
60582;SDS011;46415;47.536;19.066;2022-08-03T03:08:58;4.30;;;4.00;;
60582;SDS011;46415;47.536;19.066;2022-08-03T03:12:02;4.15;;;3.85;;
60582;SDS011;46415;47.536;19.066;2022-08-03T03:15:06;4.80;;;4.35;;
60582;SDS011;46415;47.536;19.066;2022-08-03T03:18:09;4.03;;;3.72;;
60582;SDS011;46415;47.536;19.066;2022-08-03T03:21:15;4.62;;;4.20;;
60582;SDS011;46415;47.536;19.066;2022-08-03T03:24:20;4.35;;;4.03;;
60582;SDS011;46415;47.536;19.066;2022-08-03T03:27:24;5.47;;;4.22;;
60582;SDS011;46415;47.536;19.066;2022-08-03T03:30:28;4.87;;;4.47;;
60582;SDS011;46415;47.536;19.066;2022-08-03T03:33:32;5.05;;;4.65;;
60582;SDS011;46415;47.536;19.066;2022-08-03T03:36:36;4.53;;;4.20;;
60582;SDS011;46415;47.536;19.066;2022-08-03T03:39:38;5.25;;;4.82;;
60582;SDS011;46415;47.536;19.066;2022-08-03T03:42:44;4.85;;;4.45;;
60582;SDS011;46415;47.536;19.066;2022-08-03T03:45:47;5.18;;;4.78;;
60582;SDS011;46415;47.536;19.066;2022-08-03T03:48:50;5.00;;;4.50;;
60582;SDS011;46415;47.536;19.066;2022-08-03T03:51:54;4.72;;;4.32;;
60582;SDS011;46415;47.536;19.066;2022-08-03T03:54:58;5.82;;;4.45;;
60582;SDS011;46415;47.536;19.066;2022-08-03T03:58:03;4.82;;;4.43;;
60582;SDS011;46415;47.536;19.066;2022-08-03T04:01:06;5.07;;;4.57;;
60582;SDS011;46415;47.536;19.066;2022-08-03T04:04:10;5.18;;;4.78;;
60582;SDS011;46415;47.536;19.066;2022-08-03T04:07:34;5.80;;;5.30;;
60582;SDS011;46415;47.536;19.066;2022-08-03T04:14:34;5.55;;;5.05;;
60582;SDS011;46415;47.536;19.066;2022-08-03T04:17:39;5.10;;;4.70;;
60582;SDS011;46415;47.536;19.066;2022-08-03T04:20:45;5.47;;;4.93;;
60582;SDS011;46415;47.536;19.066;2022-08-03T04:23:50;5.40;;;4.90;;
60582;SDS011;46415;47.536;19.066;2022-08-03T04:26:54;5.57;;;5.18;;
60582;SDS011;46415;47.536;19.066;2022-08-03T04:29:59;5.45;;;4.95;;
60582;SDS011;46415;47.536;19.066;2022-08-03T04:33:04;5.93;;;5.10;;
60582;SDS011;46415;47.536;19.066;2022-08-03T04:36:10;5.70;;;5.20;;
60582;SDS011;46415;47.536;19.066;2022-08-03T04:39:19;5.07;;;4.65;;
60582;SDS011;46415;47.536;19.066;2022-08-03T04:42:29;7.37;;;5.22;;
60582;SDS011;46415;47.536;19.066;2022-08-03T04:45:34;5.50;;;4.97;;
60582;SDS011;46415;47.536;19.066;2022-08-03T04:48:38;6.32;;;5.72;;
60582;SDS011;46415;47.536;19.066;2022-08-03T04:51:46;5.72;;;5.18;;
60582;SDS011;46415;47.536;19.066;2022-08-03T04:54:50;6.80;;;5.62;;
60582;SDS011;46415;47.536;19.066;2022-08-03T04:57:54;6.05;;;5.45;;
60582;SDS011;46415;47.536;19.066;2022-08-03T05:00:57;6.20;;;5.60;;
60582;SDS011;46415;47.536;19.066;2022-08-03T05:04:00;6.37;;;5.50;;
60582;SDS011;46415;47.536;19.066;2022-08-03T05:07:02;6.03;;;5.47;;
60582;SDS011;46415;47.536;19.066;2022-08-03T05:10:14;5.97;;;5.35;;
60582;SDS011;46415;47.536;19.066;2022-08-03T05:13:18;6.40;;;5.80;;
60582;SDS011;46415;47.536;19.066;2022-08-03T05:16:20;6.07;;;5.50;;
60582;SDS011;46415;47.536;19.066;2022-08-03T05:19:23;6.43;;;5.82;;
60582;SDS011;46415;47.536;19.066;2022-08-03T05:22:26;6.43;;;5.43;;
60582;SDS011;46415;47.536;19.066;2022-08-03T05:25:29;6.10;;;5.50;;
60582;SDS011;46415;47.536;19.066;2022-08-03T05:28:32;6.25;;;5.65;;
60582;SDS011;46415;47.536;19.066;2022-08-03T05:31:34;6.45;;;5.85;;
60582;SDS011;46415;47.536;19.066;2022-08-03T05:34:37;6.20;;;5.60;;
60582;SDS011;46415;47.536;19.066;2022-08-03T05:37:40;10.57;;;5.62;;
60582;SDS011;46415;47.536;19.066;2022-08-03T05:40:56;6.80;;;5.75;;
60582;SDS011;46415;47.536;19.066;2022-08-03T05:44:19;6.00;;;5.47;;
60582;SDS011;46415;47.536;19.066;2022-08-03T05:47:22;6.78;;;5.78;;
60582;SDS011;46415;47.536;19.066;2022-08-03T05:50:25;6.80;;;5.85;;
60582;SDS011;46415;47.536;19.066;2022-08-03T05:53:28;7.03;;;5.47;;
60582;SDS011;46415;47.536;19.066;2022-08-03T05:56:35;7.00;;;6.33;;
60582;SDS011;46415;47.536;19.066;2022-08-03T05:59:37;6.40;;;5.47;;
60582;SDS011;46415;47.536;19.066;2022-08-03T06:02:55;6.18;;;5.62;;
60582;SDS011;46415;47.536;19.066;2022-08-03T06:05:58;5.85;;;5.28;;
60582;SDS011;46415;47.536;19.066;2022-08-03T06:09:02;6.12;;;5.53;;
60582;SDS011;46415;47.536;19.066;2022-08-03T06:12:04;5.50;;;5.00;;
60582;SDS011;46415;47.536;19.066;2022-08-03T06:15:09;8.38;;;5.28;;
60582;SDS011;46415;47.536;19.066;2022-08-03T06:18:13;5.85;;;5.22;;
60582;SDS011;46415;47.536;19.066;2022-08-03T06:21:15;6.93;;;5.57;;
60582;SDS011;46415;47.536;19.066;2022-08-03T06:24:18;5.72;;;5.22;;
60582;SDS011;46415;47.536;19.066;2022-08-03T06:27:26;5.22;;;4.82;;
60582;SDS011;46415;47.536;19.066;2022-08-03T06:30:39;5.15;;;4.60;;
60582;SDS011;46415;47.536;19.066;2022-08-03T06:33:42;5.57;;;5.07;;
60582;SDS011;46415;47.536;19.066;2022-08-03T06:37:05;6.32;;;5.15;;
60582;SDS011;46415;47.536;19.066;2022-08-03T06:40:08;5.68;;;5.18;;
60582;SDS011;46415;47.536;19.066;2022-08-03T06:43:15;7.15;;;4.65;;
60582;SDS011;46415;47.536;19.066;2022-08-03T06:46:17;5.90;;;5.05;;
60582;SDS011;46415;47.536;19.066;2022-08-03T06:49:21;6.97;;;5.47;;
60582;SDS011;46415;47.536;19.066;2022-08-03T06:52:24;6.37;;;5.30;;
60582;SDS011;46415;47.536;19.066;2022-08-03T06:55:40;5.95;;;5.20;;
60582;SDS011;46415;47.536;19.066;2022-08-03T06:58:44;5.50;;;5.00;;
60582;SDS011;46415;47.536;19.066;2022-08-03T07:01:48;5.65;;;5.10;;
60582;SDS011;46415;47.536;19.066;2022-08-03T07:04:51;6.60;;;6.00;;
60582;SDS011;46415;47.536;19.066;2022-08-03T07:07:54;5.43;;;4.97;;
60582;SDS011;46415;47.536;19.066;2022-08-03T07:10:58;5.93;;;5.43;;
60582;SDS011;46415;47.536;19.066;2022-08-03T07:14:01;5.82;;;5.30;;
60582;SDS011;46415;47.536;19.066;2022-08-03T07:17:04;6.55;;;5.95;;
60582;SDS011;46415;47.536;19.066;2022-08-03T07:20:13;5.95;;;5.35;;
60582;SDS011;46415;47.536;19.066;2022-08-03T07:23:18;5.97;;;5.43;;
60582;SDS011;46415;47.536;19.066;2022-08-03T07:26:21;6.62;;;6.03;;
60582;SDS011;46415;47.536;19.066;2022-08-03T07:29:23;6.47;;;5.87;;
60582;SDS011;46415;47.536;19.066;2022-08-03T07:32:26;7.05;;;6.45;;
60582;SDS011;46415;47.536;19.066;2022-08-03T07:35:32;6.62;;;5.93;;
60582;SDS011;46415;47.536;19.066;2022-08-03T07:38:35;7.70;;;5.65;;
60582;SDS011;46415;47.536;19.066;2022-08-03T07:41:38;6.37;;;5.78;;
60582;SDS011;46415;47.536;19.066;2022-08-03T07:44:43;6.50;;;5.93;;
60582;SDS011;46415;47.536;19.066;2022-08-03T07:47:45;7.25;;;6.62;;
60582;SDS011;46415;47.536;19.066;2022-08-03T07:50:55;5.80;;;5.28;;
60582;SDS011;46415;47.536;19.066;2022-08-03T07:53:58;6.80;;;6.10;;
60582;SDS011;46415;47.536;19.066;2022-08-03T07:57:02;6.55;;;6.05;;
60582;SDS011;46415;47.536;19.066;2022-08-03T08:00:07;8.88;;;6.32;;
60582;SDS011;46415;47.536;19.066;2022-08-03T08:03:16;7.00;;;6.40;;
60582;SDS011;46415;47.536;19.066;2022-08-03T08:06:18;6.87;;;6.28;;
60582;SDS011;46415;47.536;19.066;2022-08-03T08:09:21;6.72;;;6.10;;
60582;SDS011;46415;47.536;19.066;2022-08-03T08:12:24;6.85;;;5.85;;
60582;SDS011;46415;47.536;19.066;2022-08-03T08:15:27;6.00;;;5.50;;
60582;SDS011;46415;47.536;19.066;2022-08-03T08:18:30;6.50;;;5.90;;
60582;SDS011;46415;47.536;19.066;2022-08-03T08:21:33;6.68;;;5.95;;
60582;SDS011;46415;47.536;19.066;2022-08-03T08:25:03;7.55;;;6.47;;
60582;SDS011;46415;47.536;19.066;2022-08-03T08:28:07;10.60;;;6.50;;
60582;SDS011;46415;47.536;19.066;2022-08-03T08:31:29;5.82;;;5.22;;
60582;SDS011;46415;47.536;19.066;2022-08-03T08:34:32;6.40;;;5.90;;
60582;SDS011;46415;47.536;19.066;2022-08-03T08:37:35;8.13;;;6.32;;
60582;SDS011;46415;47.536;19.066;2022-08-03T08:40:39;6.90;;;6.30;;
60582;SDS011;46415;47.536;19.066;2022-08-03T08:43:41;6.70;;;6.10;;
60582;SDS011;46415;47.536;19.066;2022-08-03T08:46:44;6.65;;;6.05;;
60582;SDS011;46415;47.536;19.066;2022-08-03T08:49:52;9.18;;;6.53;;
60582;SDS011;46415;47.536;19.066;2022-08-03T08:53:11;6.45;;;5.95;;
60582;SDS011;46415;47.536;19.066;2022-08-03T08:56:22;7.10;;;6.10;;
60582;SDS011;46415;47.536;19.066;2022-08-03T09:02:50;6.10;;;5.60;;
60582;SDS011;46415;47.536;19.066;2022-08-03T09:05:53;6.53;;;5.90;;
60582;SDS011;46415;47.536;19.066;2022-08-03T09:08:57;6.25;;;5.53;;
60582;SDS011;46415;47.536;19.066;2022-08-03T09:12:00;6.45;;;5.85;;
60582;SDS011;46415;47.536;19.066;2022-08-03T09:18:30;6.47;;;5.70;;
60582;SDS011;46415;47.536;19.066;2022-08-03T09:21:34;6.00;;;5.40;;
60582;SDS011;46415;47.536;19.066;2022-08-03T09:24:37;6.45;;;5.85;;
60582;SDS011;46415;47.536;19.066;2022-08-03T09:28:16;6.30;;;5.70;;
60582;SDS011;46415;47.536;19.066;2022-08-03T09:31:43;6.05;;;5.50;;
60582;SDS011;46415;47.536;19.066;2022-08-03T09:34:48;5.65;;;5.15;;
60582;SDS011;46415;47.536;19.066;2022-08-03T09:38:07;6.15;;;5.60;;
60582;SDS011;46415;47.536;19.066;2022-08-03T09:41:18;6.12;;;5.28;;
60582;SDS011;46415;47.536;19.066;2022-08-03T09:44:23;5.68;;;5.22;;
60582;SDS011;46415;47.536;19.066;2022-08-03T09:47:36;6.20;;;5.60;;
60582;SDS011;46415;47.536;19.066;2022-08-03T09:50:50;5.53;;;5.12;;
60582;SDS011;46415;47.536;19.066;2022-08-03T09:57:28;6.43;;;5.80;;
60582;SDS011;46415;47.536;19.066;2022-08-03T10:00:32;5.82;;;5.35;;
60582;SDS011;46415;47.536;19.066;2022-08-03T10:03:58;5.12;;;4.72;;
60582;SDS011;46415;47.536;19.066;2022-08-03T10:07:06;5.85;;;5.28;;
60582;SDS011;46415;47.536;19.066;2022-08-03T10:10:11;5.35;;;4.75;;
60582;SDS011;46415;47.536;19.066;2022-08-03T10:13:33;6.53;;;4.85;;
60582;SDS011;46415;47.536;19.066;2022-08-03T10:16:38;5.93;;;5.10;;
60582;SDS011;46415;47.536;19.066;2022-08-03T10:19:41;5.43;;;4.90;;
60582;SDS011;46415;47.536;19.066;2022-08-03T10:22:45;5.05;;;4.45;;
60582;SDS011;46415;47.536;19.066;2022-08-03T10:25:49;4.80;;;4.40;;
60582;SDS011;46415;47.536;19.066;2022-08-03T10:28:56;5.03;;;4.62;;
60582;SDS011;46415;47.536;19.066;2022-08-03T10:32:02;5.10;;;4.70;;
60582;SDS011;46415;47.536;19.066;2022-08-03T10:35:11;7.03;;;4.50;;
60582;SDS011;46415;47.536;19.066;2022-08-03T10:38:28;6.53;;;4.28;;
60582;SDS011;46415;47.536;19.066;2022-08-03T10:41:41;5.30;;;4.57;;
60582;SDS011;46415;47.536;19.066;2022-08-03T10:44:47;4.55;;;4.25;;
60582;SDS011;46415;47.536;19.066;2022-08-03T10:47:53;4.62;;;4.22;;
60582;SDS011;46415;47.536;19.066;2022-08-03T10:50:57;4.55;;;4.25;;
60582;SDS011;46415;47.536;19.066;2022-08-03T10:54:00;6.37;;;4.45;;
60582;SDS011;46415;47.536;19.066;2022-08-03T10:57:03;4.55;;;4.25;;
60582;SDS011;46415;47.536;19.066;2022-08-03T11:00:31;4.55;;;4.15;;
60582;SDS011;46415;47.536;19.066;2022-08-03T11:07:40;4.60;;;3.97;;
60582;SDS011;46415;47.536;19.066;2022-08-03T11:10:30;4.30;;;4.00;;
60582;SDS011;46415;47.536;19.066;2022-08-03T11:13:33;4.25;;;3.90;;
60582;SDS011;46415;47.536;19.066;2022-08-03T11:16:37;4.15;;;3.85;;
60582;SDS011;46415;47.536;19.066;2022-08-03T11:19:43;3.92;;;3.62;;
60582;SDS011;46415;47.536;19.066;2022-08-03T11:22:59;4.18;;;3.78;;
60582;SDS011;46415;47.536;19.066;2022-08-03T11:26:22;3.67;;;3.40;;
60582;SDS011;46415;47.536;19.066;2022-08-03T11:29:25;3.78;;;3.50;;
60582;SDS011;46415;47.536;19.066;2022-08-03T11:35:56;3.50;;;3.30;;
60582;SDS011;46415;47.536;19.066;2022-08-03T11:39:14;4.12;;;3.80;;
60582;SDS011;46415;47.536;19.066;2022-08-03T11:45:24;3.87;;;3.58;;
60582;SDS011;46415;47.536;19.066;2022-08-03T11:48:32;4.40;;;4.00;;
60582;SDS011;46415;47.536;19.066;2022-08-03T11:51:35;4.03;;;3.72;;
60582;SDS011;46415;47.536;19.066;2022-08-03T11:54:40;4.30;;;3.90;;
60582;SDS011;46415;47.536;19.066;2022-08-03T11:57:43;3.60;;;3.40;;
60582;SDS011;46415;47.536;19.066;2022-08-03T12:01:08;4.07;;;3.78;;
60582;SDS011;46415;47.536;19.066;2022-08-03T12:04:12;4.53;;;3.35;;
60582;SDS011;46415;47.536;19.066;2022-08-03T12:07:17;4.00;;;3.70;;
60582;SDS011;46415;47.536;19.066;2022-08-03T12:10:45;3.72;;;3.50;;
60582;SDS011;46415;47.536;19.066;2022-08-03T12:13:51;4.00;;;3.70;;
60582;SDS011;46415;47.536;19.066;2022-08-03T12:17:14;4.10;;;3.80;;
60582;SDS011;46415;47.536;19.066;2022-08-03T12:20:22;4.07;;;3.67;;
60582;SDS011;46415;47.536;19.066;2022-08-03T12:23:36;4.10;;;3.72;;
60582;SDS011;46415;47.536;19.066;2022-08-03T12:26:46;4.45;;;3.55;;
60582;SDS011;46415;47.536;19.066;2022-08-03T12:30:01;3.92;;;3.58;;
60582;SDS011;46415;47.536;19.066;2022-08-03T12:33:11;3.92;;;3.50;;
60582;SDS011;46415;47.536;19.066;2022-08-03T12:36:15;3.90;;;3.60;;
60582;SDS011;46415;47.536;19.066;2022-08-03T12:39:21;3.80;;;3.50;;
60582;SDS011;46415;47.536;19.066;2022-08-03T12:42:33;4.07;;;3.70;;
60582;SDS011;46415;47.536;19.066;2022-08-03T12:45:37;3.60;;;3.40;;
60582;SDS011;46415;47.536;19.066;2022-08-03T12:52:07;3.90;;;3.60;;
60582;SDS011;46415;47.536;19.066;2022-08-03T12:55:17;3.90;;;3.55;;
60582;SDS011;46415;47.536;19.066;2022-08-03T12:58:28;4.12;;;3.75;;
60582;SDS011;46415;47.536;19.066;2022-08-03T13:01:35;4.05;;;3.47;;
60582;SDS011;46415;47.536;19.066;2022-08-03T13:04:38;3.70;;;3.50;;
60582;SDS011;46415;47.536;19.066;2022-08-03T13:07:42;3.50;;;3.30;;
60582;SDS011;46415;47.536;19.066;2022-08-03T13:10:47;3.78;;;3.53;;
60582;SDS011;46415;47.536;19.066;2022-08-03T13:13:51;3.92;;;3.62;;
60582;SDS011;46415;47.536;19.066;2022-08-03T13:16:55;3.80;;;3.50;;
60582;SDS011;46415;47.536;19.066;2022-08-03T13:19:58;3.78;;;3.47;;
60582;SDS011;46415;47.536;19.066;2022-08-03T13:23:01;4.10;;;3.80;;
60582;SDS011;46415;47.536;19.066;2022-08-03T13:26:04;4.12;;;3.72;;
60582;SDS011;46415;47.536;19.066;2022-08-03T13:29:06;5.00;;;3.87;;
60582;SDS011;46415;47.536;19.066;2022-08-03T13:32:09;3.62;;;3.33;;
60582;SDS011;46415;47.536;19.066;2022-08-03T13:35:12;4.15;;;3.85;;
60582;SDS011;46415;47.536;19.066;2022-08-03T13:38:18;3.60;;;3.40;;
60582;SDS011;46415;47.536;19.066;2022-08-03T13:41:22;4.07;;;3.67;;
60582;SDS011;46415;47.536;19.066;2022-08-03T13:44:33;4.30;;;4.00;;
60582;SDS011;46415;47.536;19.066;2022-08-03T13:47:38;3.72;;;3.42;;
60582;SDS011;46415;47.536;19.066;2022-08-03T13:50:41;4.12;;;3.65;;
60582;SDS011;46415;47.536;19.066;2022-08-03T13:53:44;4.07;;;3.70;;
60582;SDS011;46415;47.536;19.066;2022-08-03T13:56:47;3.85;;;3.45;;
60582;SDS011;46415;47.536;19.066;2022-08-03T13:59:54;4.03;;;3.72;;
60582;SDS011;46415;47.536;19.066;2022-08-03T14:02:57;5.07;;;3.85;;
60582;SDS011;46415;47.536;19.066;2022-08-03T14:06:10;3.72;;;3.42;;
60582;SDS011;46415;47.536;19.066;2022-08-03T14:09:15;4.00;;;3.53;;
60582;SDS011;46415;47.536;19.066;2022-08-03T14:12:19;4.65;;;3.20;;
60582;SDS011;46415;47.536;19.066;2022-08-03T14:15:21;4.53;;;3.78;;
60582;SDS011;46415;47.536;19.066;2022-08-03T14:18:25;3.45;;;3.25;;
60582;SDS011;46415;47.536;19.066;2022-08-03T14:21:34;3.97;;;3.53;;
60582;SDS011;46415;47.536;19.066;2022-08-03T14:24:37;3.62;;;3.35;;
60582;SDS011;46415;47.536;19.066;2022-08-03T14:27:40;3.28;;;3.08;;
60582;SDS011;46415;47.536;19.066;2022-08-03T14:30:43;4.18;;;3.00;;
60582;SDS011;46415;47.536;19.066;2022-08-03T14:33:45;4.00;;;3.50;;
60582;SDS011;46415;47.536;19.066;2022-08-03T14:36:48;3.53;;;3.22;;
60582;SDS011;46415;47.536;19.066;2022-08-03T14:39:51;4.10;;;3.15;;
60582;SDS011;46415;47.536;19.066;2022-08-03T14:43:02;3.47;;;3.17;;
60582;SDS011;46415;47.536;19.066;2022-08-03T14:46:05;3.20;;;3.00;;
60582;SDS011;46415;47.536;19.066;2022-08-03T14:49:08;3.50;;;3.12;;
60582;SDS011;46415;47.536;19.066;2022-08-03T14:52:30;3.10;;;2.83;;
60582;SDS011;46415;47.536;19.066;2022-08-03T14:55:34;4.80;;;3.00;;
60582;SDS011;46415;47.536;19.066;2022-08-03T14:58:52;3.17;;;2.97;;
60582;SDS011;46415;47.536;19.066;2022-08-03T15:01:55;3.40;;;3.10;;
60582;SDS011;46415;47.536;19.066;2022-08-03T15:05:07;3.40;;;3.20;;
60582;SDS011;46415;47.536;19.066;2022-08-03T15:08:12;3.10;;;2.90;;
60582;SDS011;46415;47.536;19.066;2022-08-03T15:11:14;3.25;;;3.05;;
60582;SDS011;46415;47.536;19.066;2022-08-03T15:14:17;4.10;;;3.30;;
60582;SDS011;46415;47.536;19.066;2022-08-03T15:17:23;3.67;;;3.33;;
60582;SDS011;46415;47.536;19.066;2022-08-03T15:20:28;3.20;;;2.90;;
60582;SDS011;46415;47.536;19.066;2022-08-03T15:23:45;3.33;;;3.03;;
60582;SDS011;46415;47.536;19.066;2022-08-03T15:26:49;3.45;;;3.25;;
60582;SDS011;46415;47.536;19.066;2022-08-03T15:29:53;4.37;;;3.08;;
60582;SDS011;46415;47.536;19.066;2022-08-03T15:33:11;2.83;;;2.62;;
60582;SDS011;46415;47.536;19.066;2022-08-03T15:36:14;3.55;;;3.33;;
60582;SDS011;46415;47.536;19.066;2022-08-03T15:39:17;3.33;;;3.03;;
60582;SDS011;46415;47.536;19.066;2022-08-03T15:42:20;3.22;;;3.03;;
60582;SDS011;46415;47.536;19.066;2022-08-03T15:45:26;2.97;;;2.80;;
60582;SDS011;46415;47.536;19.066;2022-08-03T15:48:36;3.10;;;2.90;;
60582;SDS011;46415;47.536;19.066;2022-08-03T15:51:39;3.20;;;3.00;;
60582;SDS011;46415;47.536;19.066;2022-08-03T15:54:42;3.55;;;3.05;;
60582;SDS011;46415;47.536;19.066;2022-08-03T15:57:44;5.07;;;3.00;;
60582;SDS011;46415;47.536;19.066;2022-08-03T16:01:07;3.50;;;3.25;;
60582;SDS011;46415;47.536;19.066;2022-08-03T16:04:28;3.35;;;3.05;;
60582;SDS011;46415;47.536;19.066;2022-08-03T16:07:50;3.37;;;3.17;;
60582;SDS011;46415;47.536;19.066;2022-08-03T16:11:38;3.60;;;3.40;;
60582;SDS011;46415;47.536;19.066;2022-08-03T16:14:41;3.30;;;3.10;;
60582;SDS011;46415;47.536;19.066;2022-08-03T16:17:54;3.42;;;3.10;;
60582;SDS011;46415;47.536;19.066;2022-08-03T16:20:57;3.53;;;3.33;;
60582;SDS011;46415;47.536;19.066;2022-08-03T16:24:00;3.12;;;2.92;;
60582;SDS011;46415;47.536;19.066;2022-08-03T16:27:08;2.60;;;2.40;;
60582;SDS011;46415;47.536;19.066;2022-08-03T16:30:31;2.80;;;2.60;;
60582;SDS011;46415;47.536;19.066;2022-08-03T16:33:34;2.67;;;2.47;;
60582;SDS011;46415;47.536;19.066;2022-08-03T16:36:37;2.95;;;2.65;;
60582;SDS011;46415;47.536;19.066;2022-08-03T16:39:40;3.10;;;2.80;;
60582;SDS011;46415;47.536;19.066;2022-08-03T16:42:43;3.30;;;2.70;;
60582;SDS011;46415;47.536;19.066;2022-08-03T16:45:46;3.00;;;2.80;;
60582;SDS011;46415;47.536;19.066;2022-08-03T16:48:50;3.00;;;2.80;;
60582;SDS011;46415;47.536;19.066;2022-08-03T16:51:53;3.97;;;3.58;;
60582;SDS011;46415;47.536;19.066;2022-08-03T16:54:56;3.53;;;2.85;;
60582;SDS011;46415;47.536;19.066;2022-08-03T16:57:59;3.15;;;2.87;;
60582;SDS011;46415;47.536;19.066;2022-08-03T17:01:05;3.55;;;3.35;;
60582;SDS011;46415;47.536;19.066;2022-08-03T17:04:25;3.90;;;3.50;;
60582;SDS011;46415;47.536;19.066;2022-08-03T17:07:30;3.42;;;3.12;;
60582;SDS011;46415;47.536;19.066;2022-08-03T17:10:36;4.00;;;3.42;;
60582;SDS011;46415;47.536;19.066;2022-08-03T17:13:40;3.30;;;3.00;;
60582;SDS011;46415;47.536;19.066;2022-08-03T17:19:55;3.92;;;3.62;;
60582;SDS011;46415;47.536;19.066;2022-08-03T17:23:02;4.43;;;3.33;;
60582;SDS011;46415;47.536;19.066;2022-08-03T17:26:38;3.50;;;3.20;;
60582;SDS011;46415;47.536;19.066;2022-08-03T17:29:46;3.50;;;3.30;;
60582;SDS011;46415;47.536;19.066;2022-08-03T17:32:51;3.30;;;3.10;;
60582;SDS011;46415;47.536;19.066;2022-08-03T17:39:03;3.67;;;3.37;;
60582;SDS011;46415;47.536;19.066;2022-08-03T17:42:11;3.30;;;3.00;;
60582;SDS011;46415;47.536;19.066;2022-08-03T17:45:33;4.00;;;3.70;;
60582;SDS011;46415;47.536;19.066;2022-08-03T17:48:55;3.80;;;3.50;;
60582;SDS011;46415;47.536;19.066;2022-08-03T17:52:03;3.58;;;3.30;;
60582;SDS011;46415;47.536;19.066;2022-08-03T17:55:13;4.62;;;3.80;;
60582;SDS011;46415;47.536;19.066;2022-08-03T17:58:47;4.37;;;3.58;;
60582;SDS011;46415;47.536;19.066;2022-08-03T18:05:37;4.35;;;3.47;;
60582;SDS011;46415;47.536;19.066;2022-08-03T18:09:02;3.92;;;3.53;;
60582;SDS011;46415;47.536;19.066;2022-08-03T18:12:28;4.03;;;3.50;;
60582;SDS011;46415;47.536;19.066;2022-08-03T18:15:43;5.50;;;3.55;;
60582;SDS011;46415;47.536;19.066;2022-08-03T18:18:53;3.70;;;3.40;;
60582;SDS011;46415;47.536;19.066;2022-08-03T18:22:01;4.87;;;3.75;;
60582;SDS011;46415;47.536;19.066;2022-08-03T18:25:06;4.65;;;4.00;;
60582;SDS011;46415;47.536;19.066;2022-08-03T18:28:14;5.72;;;4.10;;
60582;SDS011;46415;47.536;19.066;2022-08-03T18:31:20;4.80;;;3.80;;
60582;SDS011;46415;47.536;19.066;2022-08-03T18:34:44;4.10;;;3.80;;
60582;SDS011;46415;47.536;19.066;2022-08-03T18:37:55;5.55;;;4.28;;
60582;SDS011;46415;47.536;19.066;2022-08-03T18:41:02;4.18;;;3.75;;
60582;SDS011;46415;47.536;19.066;2022-08-03T18:44:19;4.80;;;3.80;;
60582;SDS011;46415;47.536;19.066;2022-08-03T18:47:48;5.07;;;4.57;;
60582;SDS011;46415;47.536;19.066;2022-08-03T18:51:00;5.10;;;4.22;;
60582;SDS011;46415;47.536;19.066;2022-08-03T18:54:33;4.18;;;3.87;;
60582;SDS011;46415;47.536;19.066;2022-08-03T18:58:40;4.20;;;3.90;;
60582;SDS011;46415;47.536;19.066;2022-08-03T19:02:04;4.35;;;4.03;;
60582;SDS011;46415;47.536;19.066;2022-08-03T19:05:13;4.47;;;4.07;;
60582;SDS011;46415;47.536;19.066;2022-08-03T19:08:23;4.05;;;3.72;;
60582;SDS011;46415;47.536;19.066;2022-08-03T19:11:35;5.43;;;4.15;;
60582;SDS011;46415;47.536;19.066;2022-08-03T19:15:06;5.95;;;4.00;;
60582;SDS011;46415;47.536;19.066;2022-08-03T19:18:17;4.82;;;4.40;;
60582;SDS011;46415;47.536;19.066;2022-08-03T19:21:22;4.30;;;4.00;;
60582;SDS011;46415;47.536;19.066;2022-08-03T19:24:26;4.90;;;4.47;;
60582;SDS011;46415;47.536;19.066;2022-08-03T19:27:33;5.80;;;4.43;;
60582;SDS011;46415;47.536;19.066;2022-08-03T19:30:37;4.82;;;3.85;;
60582;SDS011;46415;47.536;19.066;2022-08-03T19:33:41;4.80;;;4.25;;